• Join FlightAware (Why Join?)
  • Login
  • US Flag 
09:54AM EDT


 

Airport Tracker/Info


-or-


 

Live Flight TrackerFlight Track Log ✈ N5178U ✈ 24-Apr-2013 ✈ T74 - KDUA

Flight Track Log - Related Links

Times and Time Zones

All times are in EDT time to prevent confusion due to time zone crossing. See the N5178U flight status page for this flight to view local times or setup timezone preferences in your user account.

Time Position Orientation Groundspeed Altitude Reporting Facility
EDT Latitude Longitude Course Direction KTS MPH feet Rate Location/Type
11:49PM 30.5033 -97.5725 14° North 120 138 5,400  Level Fort Worth Center
11:50PM 30.5117 -97.5675 27° Northeast 121 139 5,500 60 Climbing Fort Worth Center
11:51PM 30.5431 -97.5581 15° North 118 136 5,500 -60 Level Fort Worth Center
11:52PM 30.5744 -97.5436 22° Northeast 120 138 5,400 -60 Descending Fort Worth Center
11:53PM 30.6056 -97.5364 11° North 118 136 5,400  Level Fort Worth Center
11:54PM 30.7636 -97.3858 14° North  Level Estimated
11:54PM 30.6411 -97.5244 16° North 119 137 5,400  Level Fort Worth Center
11:55PM 30.8018 -97.3744 14° North  Level Estimated
11:55PM 30.6703 -97.5147 16° North 119 137 5,400  Level Fort Worth Center
11:56PM 30.7011 -97.5008 21° North 117 135 5,500  Climbing Houston Center
11:57PM 30.7331 -97.4900 16° North 117 135 5,500  Level Houston Center
11:58PM 30.7647 -97.4792 16° North 117 135 5,500  Level Houston Center
11:59PM 30.7975 -97.4669 18° North 121 139 5,500  Level Houston Center
12:00AM 30.8308 -97.4567 15° North 121 139 5,500  Level Houston Center
12:01AM 30.8631 -97.4458 16° North 120 138 5,500  Level Houston Center
12:02AM 30.8981 -97.4375 12° North 122 140 5,500 -60 Level Fort Worth Center
12:04AM 30.9642 -97.4139 17° North 123 142 5,400 -60 Descending Houston Center
12:05AM 30.9961 -97.3978 23° Northeast 122 140 5,400  Level Houston Center
12:06AM 31.0269 -97.3881 15° North 117 135 5,500  Climbing Houston Center
12:07AM 31.0586 -97.3764 18° North 116 133 5,500 -60 Level Houston Center
12:08AM 31.0919 -97.3625 20° North 121 139 5,400  Descending Houston Center
12:09AM 31.1258 -97.3533 13° North 123 142 5,500  Climbing Houston Center
12:11AM 31.1715 -97.3138 37° Northeast  Level FlightAware Approximate
12:18AM 31.3984 -97.1825 14° North  Level FlightAware Approximate
12:19AM 31.4336 -97.1720 14° North  Level FlightAware Approximate
12:20AM 31.4687 -97.1616 14° North  Level FlightAware Approximate
12:21AM 31.5039 -97.1511 14° North  Level FlightAware Approximate
12:22AM 31.5390 -97.1406 14° North  Level FlightAware Approximate
12:23AM 31.5742 -97.1301 14° North  Level FlightAware Approximate
12:24AM 31.6094 -97.1196 14° North  Level FlightAware Approximate
12:25AM 31.6445 -97.1091 14° North  Level FlightAware Approximate
12:26AM 31.6796 -97.0986 14° North  Level FlightAware Approximate
12:27AM 31.7148 -97.0881 14° North  Level FlightAware Approximate
12:28AM 31.7500 -97.0775 14° North  Level FlightAware Approximate
12:29AM 31.7851 -97.0670 14° North  Level FlightAware Approximate
12:30AM 31.8202 -97.0564 14° North  Level FlightAware Approximate
12:31AM 31.8554 -97.0459 14° North  Level FlightAware Approximate
12:32AM 31.8906 -97.0353 14° North  Level FlightAware Approximate
12:33AM 31.9257 -97.0247 14° North  Level FlightAware Approximate
12:34AM 31.9608 -97.0142 14° North  Level FlightAware Approximate
12:35AM 31.9960 -97.0036 14° North  Level FlightAware Approximate
12:36AM 32.0311 -96.9930 14° North  Level FlightAware Approximate
12:37AM 32.0663 -96.9824 14° North  Level FlightAware Approximate
12:38AM 32.1014 -96.9717 14° North  Level FlightAware Approximate
12:38AM 32.0833 -97.0333 15° North 118 136 5,500  Level Dallas / Fort Worth TRACON
12:39AM 32.1366 -96.9611 14° North  Level FlightAware Approximate
12:39AM 32.1167 -97.0167 23° Northeast 122 140 5,500  Level Dallas / Fort Worth TRACON
12:40AM 32.1717 -96.9505 14° North  Level FlightAware Approximate
12:40AM 32.1500 -97.0000 23° Northeast 122 140 5,500  Level Dallas / Fort Worth TRACON
12:41AM 32.2068 -96.9399 14° North  Level FlightAware Approximate
12:41AM 32.1833 -97.0000 360° North 124 143 5,500  Level Dallas / Fort Worth TRACON
12:42AM 32.2420 -96.9292 14° North  Level FlightAware Approximate
12:42AM 32.2167 -96.9833 23° Northeast 124 143 5,500  Level Dallas / Fort Worth TRACON
12:43AM 32.2771 -96.9186 14° North  Level FlightAware Approximate
12:43AM 32.2500 -96.9667 23° Northeast 122 140 5,500  Level Dallas / Fort Worth TRACON
12:44AM 32.3121 -96.9074 15° North  Level FlightAware Approximate
12:44AM 32.2833 -96.9667 360° North 118 136 5,500  Level Dallas / Fort Worth TRACON
12:45AM 32.3167 -96.9500 23° Northeast 125 144 5,400  Descending Dallas / Fort Worth TRACON
12:46AM 32.3333 -96.9167 59° Northeast 117 135 5,500  Climbing Dallas / Fort Worth TRACON
12:47AM 32.3500 -96.8833 59° Northeast 123 142 5,500 -60 Level Dallas / Fort Worth TRACON
12:48AM 32.3833 -96.8667 23° Northeast 122 140 5,400 -60 Descending Dallas / Fort Worth TRACON
12:49AM 32.4000 -96.8333 59° Northeast 121 139 5,400  Level Dallas / Fort Worth TRACON
12:50AM 32.4333 -96.8167 23° Northeast 117 135 5,400  Level Dallas / Fort Worth TRACON
12:51AM 32.4667 -96.7833 40° Northeast 115 132 5,400  Level Dallas / Fort Worth TRACON
12:52AM 32.4833 -96.7667 40° Northeast 118 136 5,400  Level Dallas / Fort Worth TRACON
12:53AM 32.5000 -96.7333 59° Northeast 118 136 5,400  Level Dallas / Fort Worth TRACON
12:54AM 32.5333 -96.7000 40° Northeast 117 135 5,400  Level Dallas / Fort Worth TRACON
12:55AM 32.5500 -96.6833 40° Northeast 120 138 5,400  Level Dallas / Fort Worth TRACON
12:56AM 32.5667 -96.6500 59° Northeast 119 137 5,500  Climbing Dallas / Fort Worth TRACON
12:57AM 32.5833 -96.6167 59° Northeast 122 140 5,500  Level Dallas / Fort Worth TRACON
12:58AM 32.6167 -96.5833 40° Northeast 125 144 5,500 -60 Level Dallas / Fort Worth TRACON
12:59AM 32.6333 -96.5667 40° Northeast 120 138 5,400 -60 Descending Dallas / Fort Worth TRACON
01:00AM 32.6667 -96.5500 23° Northeast 120 138 5,400  Level Dallas / Fort Worth TRACON
01:01AM 32.7000 -96.5500 360° North 123 142 5,400  Level Dallas / Fort Worth TRACON
01:02AM 32.7333 -96.5333 23° Northeast 123 142 5,400  Level Dallas / Fort Worth TRACON
01:03AM 32.7667 -96.5333 360° North 122 140 5,400  Level Dallas / Fort Worth TRACON
01:05AM 32.8000 -96.5333 360° North 117 135 5,500  Climbing Dallas / Fort Worth TRACON
01:06AM 32.8333 -96.5167 23° Northeast 119 137 5,500  Level Dallas / Fort Worth TRACON
01:07AM 32.8667 -96.5167 360° North 118 136 5,500  Level Dallas / Fort Worth TRACON
01:08AM 32.9000 -96.5167 360° North 119 137 5,500 -60 Level Dallas / Fort Worth TRACON
01:09AM 32.9333 -96.5167 360° North 117 135 5,400 -60 Descending Dallas / Fort Worth TRACON
01:10AM 32.9667 -96.5167 360° North 114 131 5,400  Level Dallas / Fort Worth TRACON
01:11AM 33.0000 -96.5000 23° Northeast 115 132 5,400  Level Dallas / Fort Worth TRACON
01:12AM 33.0333 -96.5000 360° North 117 135 5,500  Climbing Dallas / Fort Worth TRACON
01:13AM 33.0667 -96.5000 360° North 117 135 5,500  Level Dallas / Fort Worth TRACON
01:14AM 33.1000 -96.5000 360° North 119 137 5,500  Level Dallas / Fort Worth TRACON
01:15AM 33.1333 -96.4833 23° Northeast 120 138 5,500  Level Dallas / Fort Worth TRACON
01:16AM 33.1500 -96.4833 360° North 119 137 5,500  Level Dallas / Fort Worth TRACON
01:17AM 33.1833 -96.4833 360° North 116 133 5,500 -60 Level Dallas / Fort Worth TRACON
01:18AM 33.2167 -96.4833 360° North 114 131 5,400  Descending Dallas / Fort Worth TRACON
01:19AM 33.2500 -96.4667 23° Northeast 114 131 5,500 60 Climbing Dallas / Fort Worth TRACON
01:19AM 33.2619 -96.4694 349° North 121 139 5,500  Level Fort Worth Center
01:20AM 33.2975 -96.4642 North 116 133 5,500  Level Fort Worth Center
01:21AM 33.3267 -96.4589 North 116 133 5,500  Level Fort Worth Center
01:22AM 33.3600 -96.4533 North 110 127 5,500  Level Fort Worth Center
01:23AM 33.3892 -96.4481 North 110 127 5,500  Level Fort Worth Center
01:24AM 33.4244 -96.4428 North 110 127 5,500  Level Fort Worth Center
01:25AM 33.4539 -96.4400 North 115 132 5,500  Level Fort Worth Center
01:26AM 33.4892 -96.4347 North 115 132 5,500  Level Fort Worth Center
01:27AM 33.5183 -96.4317 North 115 132 5,600  Climbing Fort Worth Center
01:28AM 33.5539 -96.4289 North 115 132 5,500 -300 Descending Fort Worth Center
01:30AM 33.6167 -96.4167 North 124 143 4,900 -480 Descending Dallas / Fort Worth TRACON
01:31AM 33.6500 -96.4167 360° North 128 147 4,300 -600 Descending Dallas / Fort Worth TRACON
01:33AM 33.7068 -96.4309 348° North  Level FlightAware Approximate
01:40AM 33.9297 -96.3842 12° North  Level FlightAware Approximate
01:41AM 33.9333 -96.3833 12° North  Level FlightAware Approximate
01:42AM 33.9423 -96.3945 12° North  Level Estimated
01:43AM 33.9423 -96.3945 12° North  Level Estimated
01:44AM 33.9423 -96.3945 12° North  Level Estimated
01:45AM 33.9423 -96.3945 12° North  Level Estimated
01:46AM 33.9423 -96.3945 12° North  Level Estimated
01:47AM 33.9423 -96.3945 12° North  Level Estimated
01:48AM 33.9423 -96.3945 12° North  Level Estimated
01:49AM 33.9423 -96.3945 12° North  Level Estimated
01:50AM 33.9423 -96.3945 12° North  Level Estimated
01:51AM 33.9423 -96.3945 12° North  Level Estimated
01:52AM 33.9423 -96.3945 12° North  Level Estimated
01:53AM 33.9423 -96.3945 12° North  Level Estimated
01:54AM 33.9423 -96.3945 12° North  Level Estimated
01:55AM 33.9423 -96.3945 12° North  Level Estimated
01:56AM 33.9423 -96.3945 12° North  Level Estimated